sensor_id;sensor_type;location;lat;lon;timestamp;pressure;altitude;pressure_sealevel;temperature;humidity
40574;BME280;26283;49.020;8.644;2023-02-20T00:01:22;100436.00;;;11.79;60.86
40574;BME280;26283;49.020;8.644;2023-02-20T00:03:47;100438.72;;;11.79;60.86
40574;BME280;26283;49.020;8.644;2023-02-20T00:06:13;100433.31;;;11.79;60.86
40574;BME280;26283;49.020;8.644;2023-02-20T00:08:38;100423.53;;;11.78;60.86
40574;BME280;26283;49.020;8.644;2023-02-20T00:11:03;100426.25;;;11.78;60.87
40574;BME280;26283;49.020;8.644;2023-02-20T00:13:29;100428.94;;;11.78;60.88
40574;BME280;26283;49.020;8.644;2023-02-20T00:15:55;100430.81;;;11.77;60.88
40574;BME280;26283;49.020;8.644;2023-02-20T00:18:20;100438.06;;;11.77;60.88
40574;BME280;26283;49.020;8.644;2023-02-20T00:20:46;100431.84;;;11.76;60.89
40574;BME280;26283;49.020;8.644;2023-02-20T00:23:11;100429.12;;;11.76;60.89
40574;BME280;26283;49.020;8.644;2023-02-20T00:25:37;100434.53;;;11.76;60.89
40574;BME280;26283;49.020;8.644;2023-02-20T00:28:02;100449.72;;;11.77;60.89
40574;BME280;26283;49.020;8.644;2023-02-20T00:30:28;100449.88;;;11.76;60.90
40574;BME280;26283;49.020;8.644;2023-02-20T00:32:54;100461.69;;;11.75;60.90
40574;BME280;26283;49.020;8.644;2023-02-20T00:35:21;100452.56;;;11.76;60.90
40574;BME280;26283;49.020;8.644;2023-02-20T00:37:47;100449.22;;;11.74;60.91
40574;BME280;26283;49.020;8.644;2023-02-20T00:40:14;100456.31;;;11.75;60.92
40574;BME280;26283;49.020;8.644;2023-02-20T00:42:40;100450.06;;;11.74;60.92
40574;BME280;26283;49.020;8.644;2023-02-20T00:45:06;100446.53;;;11.74;60.92
40574;BME280;26283;49.020;8.644;2023-02-20T00:47:32;100449.22;;;11.74;60.93
40574;BME280;26283;49.020;8.644;2023-02-20T00:49:58;100446.53;;;11.74;60.93
40574;BME280;26283;49.020;8.644;2023-02-20T00:52:23;100447.37;;;11.74;60.93
40574;BME280;26283;49.020;8.644;2023-02-20T00:54:49;100446.53;;;11.74;60.93
40574;BME280;26283;49.020;8.644;2023-02-20T00:57:14;100443.00;;;11.73;60.93
40574;BME280;26283;49.020;8.644;2023-02-20T00:59:40;100438.62;;;11.72;60.94
40574;BME280;26283;49.020;8.644;2023-02-20T01:02:05;100450.25;;;11.73;60.94
40574;BME280;26283;49.020;8.644;2023-02-20T01:04:31;100444.84;;;11.73;60.94
40574;BME280;26283;49.020;8.644;2023-02-20T01:06:56;100444.03;;;11.72;60.95
40574;BME280;26283;49.020;8.644;2023-02-20T01:09:22;100435.09;;;11.72;60.95
40574;BME280;26283;49.020;8.644;2023-02-20T01:11:47;100439.66;;;11.71;60.96
40574;BME280;26283;49.020;8.644;2023-02-20T01:14:13;100429.69;;;11.72;60.96
40574;BME280;26283;49.020;8.644;2023-02-20T01:16:47;100432.38;;;11.72;60.96
40574;BME280;26283;49.020;8.644;2023-02-20T01:19:13;100430.72;;;11.71;60.98
40574;BME280;26283;49.020;8.644;2023-02-20T01:21:38;100432.59;;;11.70;60.97
40574;BME280;26283;49.020;8.644;2023-02-20T01:24:04;100428.03;;;11.71;60.98
40574;BME280;26283;49.020;8.644;2023-02-20T01:26:29;100430.13;;;11.68;60.99
40574;BME280;26283;49.020;8.644;2023-02-20T01:28:55;100432.59;;;11.70;60.99
40574;BME280;26283;49.020;8.644;2023-02-20T01:31:20;100429.28;;;11.68;60.98
40574;BME280;26283;49.020;8.644;2023-02-20T01:33:45;100423.87;;;11.68;60.98
40574;BME280;26283;49.020;8.644;2023-02-20T01:36:11;100417.44;;;11.69;60.99
40574;BME280;26283;49.020;8.644;2023-02-20T01:38:38;100419.31;;;11.68;61.00
40574;BME280;26283;49.020;8.644;2023-02-20T01:41:04;100418.47;;;11.68;60.99
40574;BME280;26283;49.020;8.644;2023-02-20T01:43:30;100419.50;;;11.67;61.00
40574;BME280;26283;49.020;8.644;2023-02-20T01:49:05;100420.34;;;11.67;61.03
40574;BME280;26283;49.020;8.644;2023-02-20T01:51:35;100422.41;;;11.65;61.00
40574;BME280;26283;49.020;8.644;2023-02-20T01:54:03;100415.12;;;11.66;61.00
40574;BME280;26283;49.020;8.644;2023-02-20T01:56:31;100415.31;;;11.64;61.02
40574;BME280;26283;49.020;8.644;2023-02-20T01:58:56;100414.50;;;11.64;61.03
40574;BME280;26283;49.020;8.644;2023-02-20T02:01:22;100412.63;;;11.64;61.04
40574;BME280;26283;49.020;8.644;2023-02-20T02:03:50;100409.09;;;11.64;61.04
40574;BME280;26283;49.020;8.644;2023-02-20T02:06:17;100403.69;;;11.64;61.05
40574;BME280;26283;49.020;8.644;2023-02-20T02:08:43;100405.56;;;11.63;61.05
40574;BME280;26283;49.020;8.644;2023-02-20T02:11:12;100410.97;;;11.63;61.05
40574;BME280;26283;49.020;8.644;2023-02-20T02:13:41;100400.34;;;11.62;61.05
40574;BME280;26283;49.020;8.644;2023-02-20T02:16:17;100397.66;;;11.62;61.05
40574;BME280;26283;49.020;8.644;2023-02-20T02:41:31;100391.16;;;11.56;61.15
40574;BME280;26283;49.020;8.644;2023-02-20T02:44:24;100392.19;;;11.55;61.16
40574;BME280;26283;49.020;8.644;2023-02-20T02:46:57;100387.84;;;11.54;61.20
40574;BME280;26283;49.020;8.644;2023-02-20T02:49:40;100388.88;;;11.53;61.17
40574;BME280;26283;49.020;8.644;2023-02-20T02:52:09;100395.94;;;11.54;61.23
40574;BME280;26283;49.020;8.644;2023-02-20T02:54:35;100387.00;;;11.54;61.20
40574;BME280;26283;49.020;8.644;2023-02-20T02:59:45;100391.56;;;11.53;61.25
40574;BME280;26283;49.020;8.644;2023-02-20T03:02:13;100385.53;;;11.51;61.20
40574;BME280;26283;49.020;8.644;2023-02-20T03:04:44;100380.97;;;11.52;61.22
40574;BME280;26283;49.020;8.644;2023-02-20T03:07:13;100378.06;;;11.53;61.22
40574;BME280;26283;49.020;8.644;2023-02-20T03:09:53;100383.47;;;11.53;61.23
40574;BME280;26283;49.020;8.644;2023-02-20T03:12:24;100374.72;;;11.51;61.25
40574;BME280;26283;49.020;8.644;2023-02-20T03:14:58;100368.50;;;11.51;61.22
40574;BME280;26283;49.020;8.644;2023-02-20T03:17:55;100373.06;;;11.50;61.24
40574;BME280;26283;49.020;8.644;2023-02-20T03:20:25;100378.44;;;11.50;61.22
40574;BME280;26283;49.020;8.644;2023-02-20T03:22:58;100370.56;;;11.49;61.22
40574;BME280;26283;49.020;8.644;2023-02-20T03:25:46;100374.09;;;11.49;61.26
40574;BME280;26283;49.020;8.644;2023-02-20T03:28:16;100372.41;;;11.48;61.25
40574;BME280;26283;49.020;8.644;2023-02-20T03:30:53;100383.22;;;11.48;61.25
40574;BME280;26283;49.020;8.644;2023-02-20T03:33:29;100377.81;;;11.48;61.29
40574;BME280;26283;49.020;8.644;2023-02-20T03:36:25;100376.19;;;11.47;61.29
40574;BME280;26283;49.020;8.644;2023-02-20T03:39:14;100380.75;;;11.47;61.28
40574;BME280;26283;49.020;8.644;2023-02-20T03:42:01;100376.37;;;11.46;61.27
40574;BME280;26283;49.020;8.644;2023-02-20T03:44:47;100375.53;;;11.45;61.29
40574;BME280;26283;49.020;8.644;2023-02-20T03:47:14;100381.97;;;11.44;61.29
40574;BME280;26283;49.020;8.644;2023-02-20T03:49:43;100374.91;;;11.43;61.32
40574;BME280;26283;49.020;8.644;2023-02-20T03:52:27;100370.34;;;11.44;61.34
40574;BME280;26283;49.020;8.644;2023-02-20T03:54:53;100366.78;;;11.43;61.33
40574;BME280;26283;49.020;8.644;2023-02-20T03:57:23;100371.38;;;11.43;61.34
40574;BME280;26283;49.020;8.644;2023-02-20T03:59:57;100365.97;;;11.43;61.36
40574;BME280;26283;49.020;8.644;2023-02-20T04:02:29;100363.47;;;11.41;61.35
40574;BME280;26283;49.020;8.644;2023-02-20T04:04:59;100372.19;;;11.43;61.35
40574;BME280;26283;49.020;8.644;2023-02-20T04:07:34;100373.22;;;11.42;61.35
40574;BME280;26283;49.020;8.644;2023-02-20T04:10:03;100366.16;;;11.41;61.35
40574;BME280;26283;49.020;8.644;2023-02-20T04:12:34;100367.19;;;11.40;61.35
40574;BME280;26283;49.020;8.644;2023-02-20T04:15:01;100355.56;;;11.40;61.36
40574;BME280;26283;49.020;8.644;2023-02-20T04:17:31;100363.47;;;11.41;61.36
40574;BME280;26283;49.020;8.644;2023-02-20T04:19:58;100356.41;;;11.40;61.37
40574;BME280;26283;49.020;8.644;2023-02-20T04:22:26;100356.41;;;11.40;61.36
40574;BME280;26283;49.020;8.644;2023-02-20T04:24:57;100358.25;;;11.40;61.36
40574;BME280;26283;49.020;8.644;2023-02-20T04:27:24;100353.88;;;11.39;61.37
40574;BME280;26283;49.020;8.644;2023-02-20T04:29:50;100362.81;;;11.39;61.37
40574;BME280;26283;49.020;8.644;2023-02-20T04:32:15;100354.09;;;11.37;61.37
40574;BME280;26283;49.020;8.644;2023-02-20T04:34:41;100361.16;;;11.38;61.37
40574;BME280;26283;49.020;8.644;2023-02-20T04:37:17;100351.38;;;11.37;61.38
40574;BME280;26283;49.020;8.644;2023-02-20T04:39:44;100372.97;;;11.37;61.41
40574;BME280;26283;49.020;8.644;2023-02-20T04:42:09;100363.22;;;11.36;61.37
40574;BME280;26283;49.020;8.644;2023-02-20T04:44:35;100366.75;;;11.37;61.38
40574;BME280;26283;49.020;8.644;2023-02-20T04:47:03;100361.53;;;11.35;61.39
40574;BME280;26283;49.020;8.644;2023-02-20T04:49:29;100364.25;;;11.35;61.40
40574;BME280;26283;49.020;8.644;2023-02-20T04:51:54;100361.72;;;11.33;61.41
40574;BME280;26283;49.020;8.644;2023-02-20T04:54:20;100362.56;;;11.34;61.42
40574;BME280;26283;49.020;8.644;2023-02-20T04:56:46;100373.38;;;11.34;61.41
40574;BME280;26283;49.020;8.644;2023-02-20T04:59:11;100374.41;;;11.33;61.42
40574;BME280;26283;49.020;8.644;2023-02-20T05:01:37;100367.97;;;11.34;61.43
40574;BME280;26283;49.020;8.644;2023-02-20T05:04:03;100372.53;;;11.33;61.43
40574;BME280;26283;49.020;8.644;2023-02-20T05:06:28;100370.88;;;11.32;61.43
40574;BME280;26283;49.020;8.644;2023-02-20T05:08:54;100372.72;;;11.32;61.43
40574;BME280;26283;49.020;8.644;2023-02-20T05:11:19;100372.72;;;11.32;61.44
40574;BME280;26283;49.020;8.644;2023-02-20T05:13:44;100372.09;;;11.30;61.43
40574;BME280;26283;49.020;8.644;2023-02-20T05:16:10;100369.37;;;11.30;61.44
40574;BME280;26283;49.020;8.644;2023-02-20T05:18:35;100366.69;;;11.30;61.45
40574;BME280;26283;49.020;8.644;2023-02-20T05:21:00;100353.38;;;11.28;61.46
40574;BME280;26283;49.020;8.644;2023-02-20T05:23:46;100359.63;;;11.29;61.46
40574;BME280;26283;49.020;8.644;2023-02-20T05:26:16;100358.78;;;11.28;61.46
40574;BME280;26283;49.020;8.644;2023-02-20T05:28:42;100351.72;;;11.27;61.48
40574;BME280;26283;49.020;8.644;2023-02-20T05:31:07;100355.44;;;11.26;61.50
40574;BME280;26283;49.020;8.644;2023-02-20T05:33:32;100356.28;;;11.27;61.51
40574;BME280;26283;49.020;8.644;2023-02-20T05:35:59;100358.38;;;11.25;61.51
40574;BME280;26283;49.020;8.644;2023-02-20T05:38:24;100357.31;;;11.26;61.51
40574;BME280;26283;49.020;8.644;2023-02-20T05:40:50;100360.00;;;11.26;61.51
40574;BME280;26283;49.020;8.644;2023-02-20T05:43:16;100363.75;;;11.25;61.51
40574;BME280;26283;49.020;8.644;2023-02-20T05:45:41;100367.50;;;11.24;61.52
40574;BME280;26283;49.020;8.644;2023-02-20T05:48:07;100368.34;;;11.24;61.51
40574;BME280;26283;49.020;8.644;2023-02-20T05:50:32;100367.50;;;11.24;61.53
40574;BME280;26283;49.020;8.644;2023-02-20T05:52:57;100365.81;;;11.23;61.53
40574;BME280;26283;49.020;8.644;2023-02-20T05:55:23;100366.66;;;11.23;61.53
40574;BME280;26283;49.020;8.644;2023-02-20T05:57:48;100371.22;;;11.23;61.54
40574;BME280;26283;49.020;8.644;2023-02-20T06:00:14;100367.69;;;11.22;61.54
40574;BME280;26283;49.020;8.644;2023-02-20T06:02:39;100363.31;;;11.21;61.54
40574;BME280;26283;49.020;8.644;2023-02-20T06:05:05;100367.88;;;11.21;61.56
40574;BME280;26283;49.020;8.644;2023-02-20T06:07:32;100363.31;;;11.21;61.57
40574;BME280;26283;49.020;8.644;2023-02-20T06:09:57;100357.09;;;11.21;61.58
40574;BME280;26283;49.020;8.644;2023-02-20T06:12:22;100355.41;;;11.20;61.58
40574;BME280;26283;49.020;8.644;2023-02-20T06:14:48;100363.50;;;11.20;61.58
40574;BME280;26283;49.020;8.644;2023-02-20T06:17:13;100361.84;;;11.19;61.59
40574;BME280;26283;49.020;8.644;2023-02-20T06:19:39;100351.06;;;11.19;61.59
40574;BME280;26283;49.020;8.644;2023-02-20T06:22:04;100355.81;;;11.17;61.59
40574;BME280;26283;49.020;8.644;2023-02-20T06:24:30;100356.44;;;11.19;61.59
40574;BME280;26283;49.020;8.644;2023-02-20T06:26:55;100356.66;;;11.17;61.60
40574;BME280;26283;49.020;8.644;2023-02-20T06:29:21;100357.47;;;11.18;61.61
40574;BME280;26283;49.020;8.644;2023-02-20T06:31:46;100363.91;;;11.17;61.61
40574;BME280;26283;49.020;8.644;2023-02-20T06:34:12;100367.62;;;11.16;61.62
40574;BME280;26283;49.020;8.644;2023-02-20T06:36:39;100371.34;;;11.15;61.63
40574;BME280;26283;49.020;8.644;2023-02-20T06:39:06;100369.50;;;11.15;61.63
40574;BME280;26283;49.020;8.644;2023-02-20T06:41:32;100374.06;;;11.15;61.63
40574;BME280;26283;49.020;8.644;2023-02-20T06:43:57;100365.13;;;11.14;61.63
40574;BME280;26283;49.020;8.644;2023-02-20T06:46:23;100361.59;;;11.14;61.64
40574;BME280;26283;49.020;8.644;2023-02-20T06:48:51;100368.84;;;11.13;61.64
40574;BME280;26283;49.020;8.644;2023-02-20T06:51:29;100365.31;;;11.13;61.65
40574;BME280;26283;49.020;8.644;2023-02-20T06:53:56;100352.84;;;11.12;61.67
40574;BME280;26283;49.020;8.644;2023-02-20T06:56:24;100353.69;;;11.12;61.65
40574;BME280;26283;49.020;8.644;2023-02-20T06:58:51;100361.97;;;11.11;61.67
40574;BME280;26283;49.020;8.644;2023-02-20T07:01:19;100355.56;;;11.12;61.66
40574;BME280;26283;49.020;8.644;2023-02-20T07:03:46;100367.38;;;11.11;61.67
40574;BME280;26283;49.020;8.644;2023-02-20T07:06:13;100370.25;;;11.09;61.67
40574;BME280;26283;49.020;8.644;2023-02-20T07:08:38;100366.53;;;11.10;61.68
40574;BME280;26283;49.020;8.644;2023-02-20T07:11:04;100372.97;;;11.09;61.68
40574;BME280;26283;49.020;8.644;2023-02-20T07:13:29;100366.72;;;11.09;61.69
40574;BME280;26283;49.020;8.644;2023-02-20T07:15:57;100364.88;;;11.09;61.70
40574;BME280;26283;49.020;8.644;2023-02-20T07:18:23;100366.72;;;11.09;61.70
40574;BME280;26283;49.020;8.644;2023-02-20T07:20:55;100366.72;;;11.09;61.69
40574;BME280;26283;49.020;8.644;2023-02-20T07:23:21;100365.06;;;11.08;61.72
40574;BME280;26283;49.020;8.644;2023-02-20T07:25:46;100367.75;;;11.08;61.71
40574;BME280;26283;49.020;8.644;2023-02-20T07:28:14;100365.25;;;11.06;61.72
40574;BME280;26283;49.020;8.644;2023-02-20T07:30:39;100371.47;;;11.07;61.73
40574;BME280;26283;49.020;8.644;2023-02-20T07:33:05;100367.13;;;11.06;61.74
40574;BME280;26283;49.020;8.644;2023-02-20T07:35:30;100375.22;;;11.06;61.74
40574;BME280;26283;49.020;8.644;2023-02-20T07:37:55;100371.69;;;11.05;61.75
40574;BME280;26283;49.020;8.644;2023-02-20T07:40:21;100372.72;;;11.04;61.75
40574;BME280;26283;49.020;8.644;2023-02-20T07:42:46;100378.12;;;11.04;61.75
40574;BME280;26283;49.020;8.644;2023-02-20T07:45:12;100378.12;;;11.04;61.76
40574;BME280;26283;49.020;8.644;2023-02-20T07:47:40;100378.12;;;11.04;61.76
40574;BME280;26283;49.020;8.644;2023-02-20T07:50:06;100380.00;;;11.04;61.77
40574;BME280;26283;49.020;8.644;2023-02-20T07:52:31;100382.69;;;11.04;61.78
40574;BME280;26283;49.020;8.644;2023-02-20T07:55:00;100376.47;;;11.03;61.80
40574;BME280;26283;49.020;8.644;2023-02-20T07:57:29;100381.03;;;11.03;61.81
40574;BME280;26283;49.020;8.644;2023-02-20T07:59:56;100381.03;;;11.03;61.82
40574;BME280;26283;49.020;8.644;2023-02-20T08:02:21;100382.69;;;11.04;61.83
40574;BME280;26283;49.020;8.644;2023-02-20T08:04:50;100385.38;;;11.04;61.83
40574;BME280;26283;49.020;8.644;2023-02-20T08:07:15;100388.09;;;11.04;61.84
40574;BME280;26283;49.020;8.644;2023-02-20T08:09:40;100386.41;;;11.03;61.86
40574;BME280;26283;49.020;8.644;2023-02-20T08:12:06;100396.19;;;11.04;61.87
40574;BME280;26283;49.020;8.644;2023-02-20T08:14:31;100395.53;;;11.02;61.88
40574;BME280;26283;49.020;8.644;2023-02-20T08:16:56;100387.25;;;11.03;61.89
40574;BME280;26283;49.020;8.644;2023-02-20T08:19:22;100386.22;;;11.04;61.88
40574;BME280;26283;49.020;8.644;2023-02-20T08:21:47;100389.94;;;11.03;61.89
40574;BME280;26283;49.020;8.644;2023-02-20T08:24:12;100395.12;;;11.05;61.89
40574;BME280;26283;49.020;8.644;2023-02-20T08:26:45;100388.91;;;11.04;61.89
40574;BME280;26283;49.020;8.644;2023-02-20T08:29:12;100385.16;;;11.05;61.90
40574;BME280;26283;49.020;8.644;2023-02-20T08:31:37;100384.31;;;11.05;61.89
40574;BME280;26283;49.020;8.644;2023-02-20T08:34:03;100384.12;;;11.06;61.90
40574;BME280;26283;49.020;8.644;2023-02-20T08:36:28;100381.44;;;11.06;61.90
40574;BME280;26283;49.020;8.644;2023-02-20T08:38:54;100382.28;;;11.07;61.90
40574;BME280;26283;49.020;8.644;2023-02-20T08:41:19;100374.19;;;11.07;61.89
40574;BME280;26283;49.020;8.644;2023-02-20T08:43:45;100373.16;;;11.08;61.91
40574;BME280;26283;49.020;8.644;2023-02-20T08:46:11;100378.34;;;11.09;61.90
40574;BME280;26283;49.020;8.644;2023-02-20T08:48:37;100374.81;;;11.09;61.90
40574;BME280;26283;49.020;8.644;2023-02-20T08:51:04;100373.78;;;11.10;61.89
40574;BME280;26283;49.020;8.644;2023-02-20T08:53:29;100371.09;;;11.10;61.89
40574;BME280;26283;49.020;8.644;2023-02-20T08:55:55;100379.84;;;11.12;61.88
40574;BME280;26283;49.020;8.644;2023-02-20T08:58:21;100380.66;;;11.12;61.87
40574;BME280;26283;49.020;8.644;2023-02-20T09:00:48;100380.47;;;11.14;61.88
40574;BME280;26283;49.020;8.644;2023-02-20T09:03:13;100374.06;;;11.15;61.87
40574;BME280;26283;49.020;8.644;2023-02-20T09:05:39;100364.09;;;11.15;61.87
40574;BME280;26283;49.020;8.644;2023-02-20T09:08:05;100373.03;;;11.16;61.86
40574;BME280;26283;49.020;8.644;2023-02-20T09:10:31;100363.91;;;11.17;61.85
40574;BME280;26283;49.020;8.644;2023-02-20T09:12:56;100358.31;;;11.18;61.83
40574;BME280;26283;49.020;8.644;2023-02-20T09:15:22;100353.75;;;11.19;61.83
40574;BME280;26283;49.020;8.644;2023-02-20T09:17:48;100362.47;;;11.21;61.82
40574;BME280;26283;49.020;8.644;2023-02-20T09:20:16;100355.22;;;11.21;61.81
40574;BME280;26283;49.020;8.644;2023-02-20T09:22:42;100367.50;;;11.24;61.79
40574;BME280;26283;49.020;8.644;2023-02-20T09:25:10;100352.97;;;11.25;61.80
40574;BME280;26283;49.020;8.644;2023-02-20T09:27:36;100345.72;;;11.25;61.81
40574;BME280;26283;49.020;8.644;2023-02-20T09:30:02;100355.25;;;11.28;61.83
40574;BME280;26283;49.020;8.644;2023-02-20T09:32:27;100345.28;;;11.28;61.83
40574;BME280;26283;49.020;8.644;2023-02-20T09:34:53;100344.25;;;11.29;61.85
40574;BME280;26283;49.020;8.644;2023-02-20T09:37:18;100358.41;;;11.31;61.90
40574;BME280;26283;49.020;8.644;2023-02-20T09:39:43;100355.50;;;11.33;61.90
40574;BME280;26283;49.020;8.644;2023-02-20T09:42:24;100349.91;;;11.34;61.92
40574;BME280;26283;49.020;8.644;2023-02-20T09:50:11;100334.16;;;11.38;62.10
40574;BME280;26283;49.020;8.644;2023-02-20T09:52:39;100333.13;;;11.39;62.16
40574;BME280;26283;49.020;8.644;2023-02-20T09:55:16;100323.16;;;11.40;62.16
40574;BME280;26283;49.020;8.644;2023-02-20T09:57:47;100306.78;;;11.41;62.12
40574;BME280;26283;49.020;8.644;2023-02-20T10:00:24;100308.44;;;11.42;62.05
40574;BME280;26283;49.020;8.644;2023-02-20T10:05:33;100317.81;;;11.46;61.85
40574;BME280;26283;49.020;8.644;2023-02-20T10:08:00;100316.56;;;11.49;61.76
40574;BME280;26283;49.020;8.644;2023-02-20T10:10:28;100312.00;;;11.49;61.68
40574;BME280;26283;49.020;8.644;2023-02-20T10:21:06;100302.09;;;11.56;61.33
40574;BME280;26283;49.020;8.644;2023-02-20T10:23:48;100305.41;;;11.58;61.24
40574;BME280;26283;49.020;8.644;2023-02-20T10:26:28;100307.91;;;11.60;61.15
40574;BME280;26283;49.020;8.644;2023-02-20T10:28:58;100297.75;;;11.62;61.07
40574;BME280;26283;49.020;8.644;2023-02-20T10:31:36;100298.41;;;11.64;61.01
40574;BME280;26283;49.020;8.644;2023-02-20T10:34:20;100295.50;;;11.65;60.91
40574;BME280;26283;49.020;8.644;2023-02-20T10:36:52;100302.56;;;11.66;60.84
40574;BME280;26283;49.020;8.644;2023-02-20T10:39:20;100300.50;;;11.68;60.76
40574;BME280;26283;49.020;8.644;2023-02-20T10:44:35;100298.53;;;11.90;60.28
40574;BME280;26283;49.020;8.644;2023-02-20T10:49:43;100295.69;;;12.05;59.70
40574;BME280;26283;49.020;8.644;2023-02-20T10:52:14;100301.50;;;12.09;59.53
40574;BME280;26283;49.020;8.644;2023-02-20T10:54:42;100298.59;;;12.10;59.39
40574;BME280;26283;49.020;8.644;2023-02-20T10:57:37;100294.87;;;12.11;59.36
40574;BME280;26283;49.020;8.644;2023-02-20T11:00:07;100287.59;;;12.12;59.35
40574;BME280;26283;49.020;8.644;2023-02-20T11:02:38;100290.06;;;12.13;59.22
40574;BME280;26283;49.020;8.644;2023-02-20T11:05:11;100288.44;;;12.12;59.24
40574;BME280;26283;49.020;8.644;2023-02-20T11:07:38;100282.78;;;12.14;59.19
40574;BME280;26283;49.020;8.644;2023-02-20T11:10:04;100276.34;;;12.15;59.17
40574;BME280;26283;49.020;8.644;2023-02-20T11:12:41;100276.34;;;12.15;59.15
40574;BME280;26283;49.020;8.644;2023-02-20T11:15:11;100277.19;;;12.15;59.19
40574;BME280;26283;49.020;8.644;2023-02-20T11:17:39;100275.31;;;12.16;59.21
40574;BME280;26283;49.020;8.644;2023-02-20T11:22:58;100268.69;;;12.18;59.20
40574;BME280;26283;49.020;8.644;2023-02-20T11:25:29;100268.69;;;12.18;59.21
40574;BME280;26283;49.020;8.644;2023-02-20T11:27:57;100270.34;;;12.19;59.17
40574;BME280;26283;49.020;8.644;2023-02-20T11:30:28;100258.69;;;12.19;59.22
40574;BME280;26283;49.020;8.644;2023-02-20T11:33:00;100254.97;;;12.20;59.28
40574;BME280;26283;49.020;8.644;2023-02-20T11:35:29;100243.31;;;12.19;59.29
40574;BME280;26283;49.020;8.644;2023-02-20T11:49:03;100218.78;;;12.21;59.27
40574;BME280;26283;49.020;8.644;2023-02-20T11:56:36;100206.13;;;12.21;59.21
40574;BME280;26283;49.020;8.644;2023-02-20T11:59:27;100200.50;;;12.23;59.19
40574;BME280;26283;49.020;8.644;2023-02-20T12:01:53;100195.94;;;12.23;59.13
40574;BME280;26283;49.020;8.644;2023-02-20T12:04:22;100191.38;;;12.24;59.11
40574;BME280;26283;49.020;8.644;2023-02-20T12:06:48;100188.47;;;12.25;59.08
40574;BME280;26283;49.020;8.644;2023-02-20T12:09:17;100177.66;;;12.25;59.06
40574;BME280;26283;49.020;8.644;2023-02-20T12:11:44;100178.28;;;12.27;59.05
40574;BME280;26283;49.020;8.644;2023-02-20T12:14:12;100167.25;;;12.29;59.02
40574;BME280;26283;49.020;8.644;2023-02-20T12:24:54;100163.94;;;12.33;58.92
40574;BME280;26283;49.020;8.644;2023-02-20T12:27:30;100166.41;;;12.35;58.88
40574;BME280;26283;49.020;8.644;2023-02-20T12:30:14;100160.16;;;12.34;58.87
40574;BME280;26283;49.020;8.644;2023-02-20T12:40:57;100146.88;;;12.40;58.74
40574;BME280;26283;49.020;8.644;2023-02-20T12:54:38;100128.97;;;12.45;58.59
40574;BME280;26283;49.020;8.644;2023-02-20T12:57:18;100128.78;;;12.47;58.58
40574;BME280;26283;49.020;8.644;2023-02-20T12:59:55;100116.91;;;12.48;58.58
40574;BME280;26283;49.020;8.644;2023-02-20T13:02:42;100110.69;;;12.47;58.57
40574;BME280;26283;49.020;8.644;2023-02-20T13:05:13;100096.75;;;12.50;58.56
40574;BME280;26283;49.020;8.644;2023-02-20T13:07:51;100087.59;;;12.51;58.49
40574;BME280;26283;49.020;8.644;2023-02-20T13:10:26;100080.31;;;12.52;58.47
40574;BME280;26283;49.020;8.644;2023-02-20T13:12:54;100094.47;;;12.54;58.48
40574;BME280;26283;49.020;8.644;2023-02-20T13:15:34;100095.28;;;12.54;58.43
40574;BME280;26283;49.020;8.644;2023-02-20T13:18:45;100090.47;;;12.56;58.39
40574;BME280;26283;49.020;8.644;2023-02-20T13:21:17;100077.78;;;12.57;58.38
40574;BME280;26283;49.020;8.644;2023-02-20T13:23:46;100076.75;;;12.58;58.34
40574;BME280;26283;49.020;8.644;2023-02-20T13:29:16;100080.69;;;12.62;58.30
40574;BME280;26283;49.020;8.644;2023-02-20T13:31:54;100067.78;;;12.64;58.26
40574;BME280;26283;49.020;8.644;2023-02-20T13:34:36;100068.63;;;12.64;58.23
40574;BME280;26283;49.020;8.644;2023-02-20T13:37:03;100066.53;;;12.66;58.22
40574;BME280;26283;49.020;8.644;2023-02-20T13:42:31;100054.47;;;12.69;58.20
40574;BME280;26283;49.020;8.644;2023-02-20T13:44:56;100046.97;;;12.71;58.16
40574;BME280;26283;49.020;8.644;2023-02-20T13:47:29;100034.28;;;12.72;58.12
40574;BME280;26283;49.020;8.644;2023-02-20T13:49:57;100031.38;;;12.73;58.12
40574;BME280;26283;49.020;8.644;2023-02-20T13:52:31;100031.16;;;12.75;58.07
40574;BME280;26283;49.020;8.644;2023-02-20T13:57:44;100036.94;;;12.78;58.03
40574;BME280;26283;49.020;8.644;2023-02-20T14:00:25;100023.22;;;12.80;57.98
40574;BME280;26283;49.020;8.644;2023-02-20T14:02:51;100019.47;;;12.81;57.97
40574;BME280;26283;49.020;8.644;2023-02-20T14:05:29;100023.81;;;12.82;57.92
40574;BME280;26283;49.020;8.644;2023-02-20T14:07:55;100012.78;;;12.83;57.91
40574;BME280;26283;49.020;8.644;2023-02-20T14:10:35;100006.97;;;12.86;57.95
40574;BME280;26283;49.020;8.644;2023-02-20T14:13:10;100009.66;;;12.86;57.90
40574;BME280;26283;49.020;8.644;2023-02-20T14:15:53;99999.47;;;12.88;57.88
40574;BME280;26283;49.020;8.644;2023-02-20T14:18:23;100002.78;;;12.90;57.89
40574;BME280;26283;49.020;8.644;2023-02-20T14:20:55;99995.50;;;12.91;57.85
40574;BME280;26283;49.020;8.644;2023-02-20T14:23:27;99990.72;;;12.93;57.87
40574;BME280;26283;49.020;8.644;2023-02-20T14:28:18;99985.91;;;12.95;57.84
40574;BME280;26283;49.020;8.644;2023-02-20T14:30:44;99987.34;;;12.97;57.80
40574;BME280;26283;49.020;8.644;2023-02-20T14:33:20;99981.94;;;12.97;57.78
40574;BME280;26283;49.020;8.644;2023-02-20T14:41:10;99975.66;;;13.03;57.74
40574;BME280;26283;49.020;8.644;2023-02-20T14:43:36;99982.72;;;13.04;57.70
40574;BME280;26283;49.020;8.644;2023-02-20T14:46:04;99976.25;;;13.05;57.70
40574;BME280;26283;49.020;8.644;2023-02-20T14:48:33;99976.88;;;13.08;57.70
40574;BME280;26283;49.020;8.644;2023-02-20T14:51:13;99968.75;;;13.08;57.68
40574;BME280;26283;49.020;8.644;2023-02-20T14:53:40;99967.72;;;13.09;57.67